Time;durP1;ratioP1;P1;durP2;ratioP2;P2;SDS_P1;SDS_P2;PMS_P1;PMS_P2;Temp;Humidity;BMP_temperature;BMP_pressure;BME280_temperature;BME280_humidity;BME280_pressure;Samples;Min_cycle;Max_cycle;Signal;HPM_P1;HPM_P2
2023/08/08 00:03:58;;;;;;;;;;;;;;;14.83;74.4043;101457.3;;;;-71
2023/08/08 00:05:00;;;;;;;0.2;0.1;;;;;;;;;;;;;-71
2023/08/08 00:08:59;;;;;;;;;;;;;;;14.81;74.61523;101461.5;;;;-70
2023/08/08 00:13:58;;;;;;;;;;;;;;;14.81;74.60352;101452.2;;;;-70
2023/08/08 00:18:58;;;;;;;;;;;;;;;14.82;74.49219;101445.8;;;;-71
2023/08/08 00:23:58;;;;;;;;;;;;;;;14.8;74.63477;101443.5;;;;-71
2023/08/08 00:28:58;;;;;;;;;;;;;;;14.8;74.48926;101439.3;;;;-70
2023/08/08 00:33:58;;;;;;;;;;;;;;;14.77;74.65234;101442.7;;;;-69
2023/08/08 00:35:02;;;;;;;0.2;0;;;;;;;;;;;;;-70
2023/08/08 00:38:59;;;;;;;;;;;;;;;14.76;74.59473;101436.9;;;;-72
2023/08/08 00:43:58;;;;;;;;;;;;;;;14.77;74.5957;101437.6;;;;-72
2023/08/08 00:48:59;;;;;;;;;;;;;;;14.79;74.78027;101437.3;;;;-71
2023/08/08 00:53:59;;;;;;;;;;;;;;;14.79;74.71289;101436.9;;;;-71
2023/08/08 00:58:59;;;;;;;;;;;;;;;14.77;74.76367;101434.6;;;;-72
2023/08/08 01:04:00;;;;;;;;;;;;;;;14.79;74.65527;101437.4;;;;-70
2023/08/08 01:05:04;;;;;;;0.2;0;;;;;;;;;;;;;-71
2023/08/08 01:09:01;;;;;;;;;;;;;;;14.77;74.75293;101436.6;;;;-71
2023/08/08 01:13:59;;;;;;;;;;;;;;;14.75;74.57031;101434.9;;;;-70
2023/08/08 01:18:59;;;;;;;;;;;;;;;14.72;74.4541;101429.8;;;;-71
2023/08/08 01:24:01;;;;;;;;;;;;;;;14.68;74.42383;101424.1;;;;-71
2023/08/08 01:29:00;;;;;;;;;;;;;;;14.65;74.55371;101429.9;;;;-71
2023/08/08 01:33:58;;;;;;;;;;;;;;;14.61;74.87402;101420.5;;;;-71
2023/08/08 01:35:07;;;;;;;0.2;0;;;;;;;;;;;;;-71
2023/08/08 01:39:05;;;;;;;;;;;;;;;14.55;74.54785;101413.2;;;;-72
2023/08/08 01:44:00;;;;;;;;;;;;;;;14.52;74.57715;101412.6;;;;-70
2023/08/08 01:49:01;;;;;;;;;;;;;;;14.46;74.64453;101403.3;;;;-70
2023/08/08 01:53:59;;;;;;;;;;;;;;;14.43;74.52832;101397.6;;;;-70
2023/08/08 01:58:58;;;;;;;;;;;;;;;14.38;74.48535;101391.3;;;;-70
2023/08/08 02:03:58;;;;;;;;;;;;;;;14.32;74.49805;101389.8;;;;-70
2023/08/08 02:05:09;;;;;;;0.2;0.1;;;;;;;;;;;;;-71
2023/08/08 02:08:59;;;;;;;;;;;;;;;14.28;74.86133;101392.4;;;;-70
2023/08/08 02:13:58;;;;;;;;;;;;;;;14.24;74.70996;101391.6;;;;-71
2023/08/08 02:19:00;;;;;;;;;;;;;;;14.22;74.77246;101392.5;;;;-71
2023/08/08 02:23:58;;;;;;;;;;;;;;;14.18;74.74219;101389.7;;;;-69
2023/08/08 02:28:58;;;;;;;;;;;;;;;14.18;74.68652;101390.8;;;;-71
2023/08/08 02:33:58;;;;;;;;;;;;;;;14.15;74.73926;101383.1;;;;-70
2023/08/08 02:35:11;;;;;;;0.2;0;;;;;;;;;;;;;-71
2023/08/08 02:38:58;;;;;;;;;;;;;;;14.17;74.83008;101377.8;;;;-71
2023/08/08 02:43:59;;;;;;;;;;;;;;;14.17;74.86328;101378.1;;;;-70
2023/08/08 02:48:58;;;;;;;;;;;;;;;14.17;74.58398;101376;;;;-70
2023/08/08 02:53:58;;;;;;;;;;;;;;;14.15;74.62598;101373.9;;;;-71
2023/08/08 02:58:58;;;;;;;;;;;;;;;14.15;74.77246;101372.8;;;;-69
2023/08/08 03:03:59;;;;;;;;;;;;;;;14.19;74.64453;101366.8;;;;-71
2023/08/08 03:05:15;;;;;;;0.2;0.1;;;;;;;;;;;;;-71
2023/08/08 03:08:59;;;;;;;;;;;;;;;14.21;74.74805;101365.3;;;;-70
2023/08/08 03:13:59;;;;;;;;;;;;;;;14.21;74.56934;101366.2;;;;-68
2023/08/08 03:18:58;;;;;;;;;;;;;;;14.23;74.62695;101366.1;;;;-70
2023/08/08 03:23:59;;;;;;;;;;;;;;;14.21;74.64648;101355.8;;;;-71
2023/08/08 03:28:59;;;;;;;;;;;;;;;14.21;74.70215;101350.3;;;;-69
2023/08/08 03:33:58;;;;;;;;;;;;;;;14.19;74.68945;101350.9;;;;-70
2023/08/08 03:35:15;;;;;;;0.2;0;;;;;;;;;;;;;-70
2023/08/08 03:38:59;;;;;;;;;;;;;;;14.19;74.77832;101355.7;;;;-71
2023/08/08 03:43:58;;;;;;;;;;;;;;;14.23;74.7627;101353.2;;;;-70
2023/08/08 03:48:58;;;;;;;;;;;;;;;14.25;74.87695;101346.4;;;;-72
2023/08/08 03:53:58;;;;;;;;;;;;;;;14.26;74.91211;101344.3;;;;-71
2023/08/08 03:58:59;;;;;;;;;;;;;;;14.21;75.10547;101338.7;;;;-71
2023/08/08 04:03:58;;;;;;;;;;;;;;;14.16;75.09668;101335.2;;;;-70
2023/08/08 04:05:17;;;;;;;0.2;0;;;;;;;;;;;;;-70
2023/08/08 04:09:00;;;;;;;;;;;;;;;14.09;75.16406;101333.9;;;;-69
2023/08/08 04:13:58;;;;;;;;;;;;;;;14.04;75.40039;101333.3;;;;-70
2023/08/08 04:18:59;;;;;;;;;;;;;;;14;75.31641;101336.2;;;;-70
2023/08/08 04:24:01;;;;;;;;;;;;;;;13.96;75.24219;101338.6;;;;-74
2023/08/08 04:28:59;;;;;;;;;;;;;;;13.92;75.26855;101340.2;;;;-70
2023/08/08 04:34:00;;;;;;;;;;;;;;;13.88;75.3291;101341.4;;;;-71
2023/08/08 04:35:19;;;;;;;0.2;0.1;;;;;;;;;;;;;-71
2023/08/08 04:38:58;;;;;;;;;;;;;;;13.86;75.19238;101341.9;;;;-70
2023/08/08 04:43:58;;;;;;;;;;;;;;;13.87;75.1582;101344.2;;;;-70
2023/08/08 04:48:59;;;;;;;;;;;;;;;13.85;75.2002;101342.8;;;;-71
2023/08/08 04:53:58;;;;;;;;;;;;;;;13.86;75.13574;101339.4;;;;-70
2023/08/08 04:59:01;;;;;;;;;;;;;;;13.84;75.27832;101340.5;;;;-72
2023/08/08 05:04:01;;;;;;;;;;;;;;;13.83;75.10938;101337.7;;;;-71
2023/08/08 05:05:21;;;;;;;0.2;0;;;;;;;;;;;;;-69
2023/08/08 05:08:59;;;;;;;;;;;;;;;13.85;75.33398;101336.4;;;;-69
2023/08/08 05:13:58;;;;;;;;;;;;;;;13.84;75.15527;101337;;;;-72
2023/08/08 05:18:58;;;;;;;;;;;;;;;13.89;75.1748;101335.2;;;;-70
2023/08/08 05:23:59;;;;;;;;;;;;;;;13.88;75.19531;101338.2;;;;-71
2023/08/08 05:29:01;;;;;;;;;;;;;;;13.9;75.0625;101343.1;;;;-70
2023/08/08 05:33:58;;;;;;;;;;;;;;;13.93;75.10254;101344.3;;;;-71
2023/08/08 05:35:23;;;;;;;0.2;0;;;;;;;;;;;;;-71
2023/08/08 05:38:58;;;;;;;;;;;;;;;13.99;75.20313;101345.5;;;;-70
2023/08/08 05:43:58;;;;;;;;;;;;;;;14.18;76.10547;101345;;;;-70
2023/08/08 05:49:01;;;;;;;;;;;;;;;14.63;75.57031;101347.9;;;;-70
2023/08/08 05:53:58;;;;;;;;;;;;;;;15.13;73.79395;101338.6;;;;-70
2023/08/08 05:58:58;;;;;;;;;;;;;;;15.68;72.84473;101340.8;;;;-72
2023/08/08 06:03:59;;;;;;;;;;;;;;;16.26;71.14063;101343.8;;;;-70
2023/08/08 06:05:26;;;;;;;0.2;0;;;;;;;;;;;;;-71
2023/08/08 06:08:59;;;;;;;;;;;;;;;16.75;69.47461;101346.1;;;;-71
2023/08/08 06:13:59;;;;;;;;;;;;;;;17.17;69.98047;101338.2;;;;-72
2023/08/08 06:18:59;;;;;;;;;;;;;;;17.57;68.1582;101354.7;;;;-70
2023/08/08 06:23:59;;;;;;;;;;;;;;;17.87;67.62988;101342.3;;;;-71
2023/08/08 06:28:58;;;;;;;;;;;;;;;18.19;67.18262;101342.1;;;;-72
2023/08/08 06:33:59;;;;;;;;;;;;;;;18.53;66.62109;101340.1;;;;-71
2023/08/08 06:35:27;;;;;;;0.2;0.1;;;;;;;;;;;;;-71
2023/08/08 06:38:59;;;;;;;;;;;;;;;18.76;66.06738;101339.1;;;;-72
2023/08/08 06:43:59;;;;;;;;;;;;;;;18.99;65.52246;101335.4;;;;-70
2023/08/08 06:48:59;;;;;;;;;;;;;;;19.17;64.84766;101345.8;;;;-71
2023/08/08 06:53:58;;;;;;;;;;;;;;;19.35;64.79492;101341.6;;;;-67
2023/08/08 06:58:58;;;;;;;;;;;;;;;19.74;64.52246;101333.8;;;;-67
2023/08/08 07:03:59;;;;;;;;;;;;;;;19.87;63.49609;101339.3;;;;-69
2023/08/08 07:05:30;;;;;;;0.2;0;;;;;;;;;;;;;-68
2023/08/08 07:08:58;;;;;;;;;;;;;;;19.59;64.03516;101335.6;;;;-67
2023/08/08 07:13:58;;;;;;;;;;;;;;;19.36;65.19141;101338.6;;;;-68
2023/08/08 07:18:58;;;;;;;;;;;;;;;19.4;64.5293;101335.2;;;;-67
2023/08/08 07:23:58;;;;;;;;;;;;;;;19.31;64.86719;101337.2;;;;-68
2023/08/08 07:28:58;;;;;;;;;;;;;;;19.19;64.73535;101333.9;;;;-68
2023/08/08 07:33:58;;;;;;;;;;;;;;;19.12;65.4873;101339.6;;;;-68
2023/08/08 07:35:33;;;;;;;0.2;0.1;;;;;;;;;;;;;-68
2023/08/08 07:38:59;;;;;;;;;;;;;;;19.13;65.2373;101333;;;;-69
2023/08/08 07:43:58;;;;;;;;;;;;;;;19.09;65.77539;101330.9;;;;-68
2023/08/08 07:48:59;;;;;;;;;;;;;;;18.91;65.69238;101326.4;;;;-67
2023/08/08 07:53:58;;;;;;;;;;;;;;;18.86;67.34961;101324.4;;;;-68
2023/08/08 07:58:59;;;;;;;;;;;;;;;18.9;66.54102;101328;;;;-67
2023/08/08 08:03:58;;;;;;;;;;;;;;;18.79;66.67188;101330.6;;;;-67
2023/08/08 08:05:37;;;;;;;0.2;0;;;;;;;;;;;;;-68
2023/08/08 08:08:58;;;;;;;;;;;;;;;18.86;68.3125;101322.6;;;;-67
2023/08/08 08:13:58;;;;;;;;;;;;;;;19.11;67.21875;101323.5;;;;-68
2023/08/08 08:18:58;;;;;;;;;;;;;;;18.94;67.52051;101319.5;;;;-67
2023/08/08 08:23:58;;;;;;;;;;;;;;;18.75;67.98926;101322.8;;;;-69
2023/08/08 08:28:59;;;;;;;;;;;;;;;18.69;68.60254;101319.8;;;;-68
2023/08/08 08:33:59;;;;;;;;;;;;;;;18.76;68.47656;101331.3;;;;-67
2023/08/08 08:35:39;;;;;;;0.2;0;;;;;;;;;;;;;-68
2023/08/08 08:38:58;;;;;;;;;;;;;;;18.73;67.91797;101321.3;;;;-70
2023/08/08 08:44:01;;;;;;;;;;;;;;;18.81;67.8291;101329.1;;;;-67
2023/08/08 08:48:59;;;;;;;;;;;;;;;18.85;67.51855;101332.8;;;;-67
2023/08/08 08:53:59;;;;;;;;;;;;;;;18.85;67.87012;101329.9;;;;-68
2023/08/08 08:58:58;;;;;;;;;;;;;;;19.12;67.65137;101329.3;;;;-67
2023/08/08 09:03:58;;;;;;;;;;;;;;;19.3;66.69141;101339.8;;;;-69
2023/08/08 09:05:44;;;;;;;0.2;0;;;;;;;;;;;;;-67
2023/08/08 09:08:58;;;;;;;;;;;;;;;19.16;66.68066;101337.3;;;;-68
2023/08/08 09:14:00;;;;;;;;;;;;;;;19.15;67.47363;101347.2;;;;-67
2023/08/08 09:18:58;;;;;;;;;;;;;;;19.26;67.14941;101330.2;;;;-68
2023/08/08 09:23:58;;;;;;;;;;;;;;;19.43;66.72168;101330;;;;-67
2023/08/08 09:28:59;;;;;;;;;;;;;;;19.79;66.48145;101337.1;;;;-69
2023/08/08 09:33:58;;;;;;;;;;;;;;;19.98;64.99805;101349.3;;;;-67
2023/08/08 09:35:45;;;;;;;0.2;0;;;;;;;;;;;;;-67
2023/08/08 09:38:59;;;;;;;;;;;;;;;20.01;64.71973;101344.3;;;;-67
2023/08/08 09:43:58;;;;;;;;;;;;;;;20.07;64.89941;101357.5;;;;-68
2023/08/08 09:48:59;;;;;;;;;;;;;;;20.11;64.35742;101348.9;;;;-67
2023/08/08 09:53:59;;;;;;;;;;;;;;;20.17;64.40234;101353.9;;;;-68
2023/08/08 09:58:59;;;;;;;;;;;;;;;20.29;64.28223;101352.9;;;;-68
2023/08/08 10:03:59;;;;;;;;;;;;;;;20.54;63.98828;101353.8;;;;-67
2023/08/08 10:05:49;;;;;;;0.2;0.1;;;;;;;;;;;;;-68
2023/08/08 10:08:58;;;;;;;;;;;;;;;20.74;63.10645;101355.9;;;;-67
2023/08/08 10:14:00;;;;;;;;;;;;;;;20.84;63.12109;101352.8;;;;-67
2023/08/08 10:19:03;;;;;;;;;;;;;;;20.94;62.75977;101356;;;;-68
2023/08/08 10:24:08;;;;;;;;;;;;;;;20.89;62.41113;101359.9;;;;-68
2023/08/08 10:29:03;;;;;;;;;;;;;;;20.92;62.44922;101363;;;;-69
2023/08/08 10:34:06;;;;;;;;;;;;;;;21.05;62.28516;101360.3;;;;-68
2023/08/08 10:36:06;;;;;;;0.2;0;;;;;;;;;;;;;-67
2023/08/08 10:39:02;;;;;;;;;;;;;;;21.11;62.77246;101351.8;;;;-67
2023/08/08 10:44:00;;;;;;;;;;;;;;;21.31;62.17285;101354.5;;;;-68
2023/08/08 10:49:00;;;;;;;;;;;;;;;21.56;61.59277;101362.7;;;;-68
2023/08/08 10:53:59;;;;;;;;;;;;;;;21.75;61.18555;101365.6;;;;-68
2023/08/08 10:58:58;;;;;;;;;;;;;;;21.85;60.13574;101370.1;;;;-67
2023/08/08 11:04:01;;;;;;;;;;;;;;;21.86;60.8916;101362.5;;;;-69
2023/08/08 11:05:55;;;;;;;0.2;0.1;;;;;;;;;;;;;-66
2023/08/08 11:08:59;;;;;;;;;;;;;;;21.92;59.98535;101369.5;;;;-67
2023/08/08 11:13:59;;;;;;;;;;;;;;;21.83;60.37305;101373;;;;-68
2023/08/08 11:18:59;;;;;;;;;;;;;;;21.82;60.30371;101378.4;;;;-66
2023/08/08 11:23:58;;;;;;;;;;;;;;;21.93;60.10254;101373.1;;;;-68
2023/08/08 11:28:58;;;;;;;;;;;;;;;22.11;60.54785;101370.6;;;;-67
2023/08/08 11:33:59;;;;;;;;;;;;;;;22.23;60.58594;101368;;;;-68
2023/08/08 11:36:00;;;;;;;0.2;0;;;;;;;;;;;;;-68
2023/08/08 11:38:59;;;;;;;;;;;;;;;22.28;60.8457;101359;;;;-67
2023/08/08 11:43:59;;;;;;;;;;;;;;;22.43;60.2832;101357.7;;;;-68
2023/08/08 11:48:58;;;;;;;;;;;;;;;22.43;59.99805;101361.9;;;;-68
2023/08/08 11:53:58;;;;;;;;;;;;;;;22.44;60.23828;101367.9;;;;-68
2023/08/08 11:58:58;;;;;;;;;;;;;;;22.52;60.13477;101367.4;;;;-68
2023/08/08 12:03:59;;;;;;;;;;;;;;;22.74;59.53418;101361.5;;;;-68
2023/08/08 12:06:04;;;;;;;0.2;0;;;;;;;;;;;;;-68
2023/08/08 12:08:58;;;;;;;;;;;;;;;23.21;60.92578;101359;;;;-67
2023/08/08 12:14:02;;;;;;;;;;;;;;;23.67;59.85156;101362.6;;;;-67
2023/08/08 12:18:58;;;;;;;;;;;;;;;23.73;60.19336;101360.6;;;;-67
2023/08/08 12:23:58;;;;;;;;;;;;;;;23.84;59.66797;101356.1;;;;-68
2023/08/08 12:28:58;;;;;;;;;;;;;;;24.09;58.89746;101358;;;;-68
2023/08/08 12:33:59;;;;;;;;;;;;;;;23.96;59.31738;101351.9;;;;-68
2023/08/08 12:36:07;;;;;;;0.2;0;;;;;;;;;;;;;-69
2023/08/08 12:38:58;;;;;;;;;;;;;;;23.85;58.75098;101363.1;;;;-68
2023/08/08 12:43:58;;;;;;;;;;;;;;;23.8;59.30859;101367.8;;;;-68
2023/08/08 12:48:58;;;;;;;;;;;;;;;23.65;59.07031;101370.9;;;;-67
2023/08/08 12:53:58;;;;;;;;;;;;;;;23.68;60.7041;101367.5;;;;-68
2023/08/08 12:58:58;;;;;;;;;;;;;;;23.85;60.10645;101354.7;;;;-68
2023/08/08 13:03:58;;;;;;;;;;;;;;;24.08;60.03418;101360.4;;;;-67
2023/08/08 13:06:13;;;;;;;0.2;0;;;;;;;;;;;;;-68
2023/08/08 13:08:58;;;;;;;;;;;;;;;24.1;59.62402;101371.3;;;;-68
2023/08/08 13:13:58;;;;;;;;;;;;;;;24.04;59.3623;101380.1;;;;-67
2023/08/08 13:18:58;;;;;;;;;;;;;;;24.09;59.0127;101379.3;;;;-70
2023/08/08 13:23:58;;;;;;;;;;;;;;;23.85;59.89941;101376.5;;;;-67
2023/08/08 13:28:58;;;;;;;;;;;;;;;23.54;59.25098;101383.3;;;;-67
2023/08/08 13:33:58;;;;;;;;;;;;;;;23.29;59.02246;101382.2;;;;-70
2023/08/08 13:36:15;;;;;;;0.2;0;;;;;;;;;;;;;-68
2023/08/08 13:38:59;;;;;;;;;;;;;;;23.04;59.23047;101391.3;;;;-68
2023/08/08 13:43:58;;;;;;;;;;;;;;;22.97;59.9541;101386.6;;;;-67
2023/08/08 13:48:58;;;;;;;;;;;;;;;23.09;59.55762;101385.5;;;;-67
2023/08/08 13:53:58;;;;;;;;;;;;;;;23.06;59.59961;101388.3;;;;-67
2023/08/08 13:58:58;;;;;;;;;;;;;;;23.03;59.27539;101396.8;;;;-66
2023/08/08 14:03:58;;;;;;;;;;;;;;;22.93;59.36426;101398.1;;;;-68
2023/08/08 14:06:19;;;;;;;0.2;0;;;;;;;;;;;;;-67
2023/08/08 14:08:58;;;;;;;;;;;;;;;22.82;59.5791;101397.9;;;;-68
2023/08/08 14:13:58;;;;;;;;;;;;;;;22.66;59.83398;101399.8;;;;-67
2023/08/08 14:18:58;;;;;;;;;;;;;;;22.43;60.37402;101392.6;;;;-67
2023/08/08 14:23:58;;;;;;;;;;;;;;;22.22;60.35742;101390.8;;;;-67
2023/08/08 14:28:58;;;;;;;;;;;;;;;22.09;59.71191;101389.6;;;;-68
2023/08/08 14:33:58;;;;;;;;;;;;;;;22.07;60.03906;101381.7;;;;-67
2023/08/08 14:36:23;;;;;;;0.4;0.2;;;;;;;;;;;;;-68
2023/08/08 14:38:58;;;;;;;;;;;;;;;22.03;60.7998;101374.5;;;;-66
2023/08/08 14:43:58;;;;;;;;;;;;;;;22.06;60.46191;101382.6;;;;-68
2023/08/08 14:48:58;;;;;;;;;;;;;;;22.09;60.43164;101387.9;;;;-67
2023/08/08 14:53:58;;;;;;;;;;;;;;;22.09;59.80273;101387.4;;;;-68
2023/08/08 14:58:58;;;;;;;;;;;;;;;21.95;60.14941;101398.3;;;;-68
2023/08/08 15:04:00;;;;;;;;;;;;;;;21.7;60.8457;101395.7;;;;-67
2023/08/08 15:06:27;;;;;;;0.6;0.2;;;;;;;;;;;;;-68
2023/08/08 15:08:58;;;;;;;;;;;;;;;21.55;60.90527;101400.2;;;;-66
2023/08/08 15:13:58;;;;;;;;;;;;;;;21.47;61.06543;101402.7;;;;-68
2023/08/08 15:18:58;;;;;;;;;;;;;;;21.42;60.67188;101396.1;;;;-67
2023/08/08 15:23:58;;;;;;;;;;;;;;;21.23;61.70605;101397.2;;;;-67
2023/08/08 15:28:58;;;;;;;;;;;;;;;21.06;62.05762;101394.3;;;;-67
2023/08/08 15:33:58;;;;;;;;;;;;;;;20.93;62.26855;101389.9;;;;-67
2023/08/08 15:36:31;;;;;;;0.4;0.1;;;;;;;;;;;;;-67
2023/08/08 15:38:58;;;;;;;;;;;;;;;20.83;62.33398;101400.6;;;;-68
2023/08/08 15:43:58;;;;;;;;;;;;;;;20.69;63.06543;101398.2;;;;-68
2023/08/08 15:48:58;;;;;;;;;;;;;;;20.49;63.34473;101397.3;;;;-69
2023/08/08 15:53:58;;;;;;;;;;;;;;;20.28;63.71191;101415.1;;;;-71
2023/08/08 15:58:58;;;;;;;;;;;;;;;19.99;64.92285;101397.4;;;;-69
2023/08/08 16:03:58;;;;;;;;;;;;;;;19.78;65.71973;101395.7;;;;-70
2023/08/08 16:06:34;;;;;;;0.2;0;;;;;;;;;;;;;-71
2023/08/08 16:08:59;;;;;;;;;;;;;;;19.52;66.10059;101400;;;;-70
2023/08/08 16:13:58;;;;;;;;;;;;;;;19.3;66.2832;101397.3;;;;-71
2023/08/08 16:18:58;;;;;;;;;;;;;;;19.18;65.76758;101394.2;;;;-71
2023/08/08 16:23:58;;;;;;;;;;;;;;;19.02;66.16309;101390.5;;;;-71
2023/08/08 16:29:00;;;;;;;;;;;;;;;18.89;66.32422;101392.2;;;;-70
2023/08/08 16:34:00;;;;;;;;;;;;;;;18.78;66.36426;101373.4;;;;-71
2023/08/08 16:36:39;;;;;;;0.2;0.1;;;;;;;;;;;;;-70
2023/08/08 16:38:58;;;;;;;;;;;;;;;18.72;66.34473;101366.9;;;;-70
2023/08/08 16:44:05;;;;;;;;;;;;;;;18.64;66.28613;101371.8;;;;-71
2023/08/08 16:48:58;;;;;;;;;;;;;;;18.55;66.2627;101401.1;;;;-71
2023/08/08 16:53:59;;;;;;;;;;;;;;;18.46;66.7793;101395.3;;;;-70
2023/08/08 16:58:58;;;;;;;;;;;;;;;18.31;66.67871;101393.9;;;;-70
2023/08/08 17:03:58;;;;;;;;;;;;;;;18.15;67.15234;101377.5;;;;-70
2023/08/08 17:06:41;;;;;;;0.2;0.1;;;;;;;;;;;;;-70
2023/08/08 17:08:59;;;;;;;;;;;;;;;17.98;67.5332;101370.5;;;;-71
2023/08/08 17:13:58;;;;;;;;;;;;;;;17.83;68.14355;101373.6;;;;-71
2023/08/08 17:18:58;;;;;;;;;;;;;;;17.65;69.15332;101372.1;;;;-71
2023/08/08 17:23:58;;;;;;;;;;;;;;;17.55;69.02539;101363.4;;;;-70
2023/08/08 17:28:58;;;;;;;;;;;;;;;17.43;69.0752;101363.3;;;;-70
2023/08/08 17:33:59;;;;;;;;;;;;;;;17.33;69.71289;101362.8;;;;-71
2023/08/08 17:36:47;;;;;;;0.2;0;;;;;;;;;;;;;-71
2023/08/08 17:38:58;;;;;;;;;;;;;;;17.27;69.28418;101361.4;;;;-70
2023/08/08 17:43:58;;;;;;;;;;;;;;;17.19;69.99414;101376;;;;-71
2023/08/08 17:48:58;;;;;;;;;;;;;;;17.11;70.27441;101365.2;;;;-70
2023/08/08 17:54:01;;;;;;;;;;;;;;;17.04;70.33203;101357.1;;;;-69
2023/08/08 17:58:58;;;;;;;;;;;;;;;16.98;70.58203;101360.5;;;;-71
2023/08/08 18:03:58;;;;;;;;;;;;;;;16.92;70.30176;101359.4;;;;-71
2023/08/08 18:06:47;;;;;;;0.2;0;;;;;;;;;;;;;-71
2023/08/08 18:08:58;;;;;;;;;;;;;;;16.87;70.63281;101352;;;;-70
2023/08/08 18:13:58;;;;;;;;;;;;;;;16.82;70.72363;101357.4;;;;-70
2023/08/08 18:18:58;;;;;;;;;;;;;;;16.76;70.82715;101347.9;;;;-69
2023/08/08 18:23:59;;;;;;;;;;;;;;;16.69;71.42383;101345.3;;;;-70
2023/08/08 18:29:01;;;;;;;;;;;;;;;16.65;70.55078;101344;;;;-72
2023/08/08 18:34:05;;;;;;;;;;;;;;;16.6;70.99414;101341.8;;;;-71
2023/08/08 18:36:50;;;;;;;0.2;0;;;;;;;;;;;;;-68
2023/08/08 18:38:59;;;;;;;;;;;;;;;16.57;70.95313;101339.8;;;;-72
2023/08/08 18:43:59;;;;;;;;;;;;;;;16.51;71.54199;101332.4;;;;-67
2023/08/08 18:48:58;;;;;;;;;;;;;;;16.48;71.00879;101321;;;;-69
2023/08/08 18:53:58;;;;;;;;;;;;;;;16.43;71.5957;101326.5;;;;-69
2023/08/08 18:58:58;;;;;;;;;;;;;;;16.38;72.15039;101321.6;;;;-68
2023/08/08 19:03:58;;;;;;;;;;;;;;;16.36;71.68555;101317.4;;;;-68
2023/08/08 19:06:53;;;;;;;0.2;0;;;;;;;;;;;;;-68
2023/08/08 19:09:00;;;;;;;;;;;;;;;16.3;72.29297;101324.3;;;;-69
2023/08/08 19:13:58;;;;;;;;;;;;;;;16.26;72.88281;101322.6;;;;-68
2023/08/08 19:18:58;;;;;;;;;;;;;;;16.21;72.53809;101314;;;;-68
2023/08/08 19:23:59;;;;;;;;;;;;;;;16.15;73.00098;101319.5;;;;-68
2023/08/08 19:28:58;;;;;;;;;;;;;;;16.11;73.02734;101309.5;;;;-68
2023/08/08 19:33:58;;;;;;;;;;;;;;;16.06;73.50098;101304.3;;;;-69
2023/08/08 19:36:55;;;;;;;0.2;0.1;;;;;;;;;;;;;-69
2023/08/08 19:38:59;;;;;;;;;;;;;;;16.02;73.41504;101304.4;;;;-68
2023/08/08 19:43:58;;;;;;;;;;;;;;;15.96;73.32715;101309.8;;;;-68
2023/08/08 19:48:58;;;;;;;;;;;;;;;15.91;73.5332;101309.5;;;;-67
2023/08/08 19:53:58;;;;;;;;;;;;;;;15.86;73.45703;101310.9;;;;-67
2023/08/08 19:58:58;;;;;;;;;;;;;;;15.77;73.29688;101308.6;;;;-68
2023/08/08 20:03:59;;;;;;;;;;;;;;;15.69;73.89941;101303.7;;;;-68
2023/08/08 20:06:58;;;;;;;0.2;0.1;;;;;;;;;;;;;-68
2023/08/08 20:08:58;;;;;;;;;;;;;;;15.63;73.64355;101307.6;;;;-68
2023/08/08 20:13:58;;;;;;;;;;;;;;;15.54;74.06543;101311.2;;;;-69
2023/08/08 20:18:58;;;;;;;;;;;;;;;15.47;74.10938;101323.8;;;;-68
2023/08/08 20:23:59;;;;;;;;;;;;;;;15.4;73.81641;101320.2;;;;-71
2023/08/08 20:29:00;;;;;;;;;;;;;;;15.33;73.79688;101331.2;;;;-70
2023/08/08 20:33:58;;;;;;;;;;;;;;;15.28;73.94434;101328.3;;;;-72
2023/08/08 20:37:01;;;;;;;0.2;0;;;;;;;;;;;;;-70
2023/08/08 20:38:58;;;;;;;;;;;;;;;15.23;74.22656;101310.4;;;;-69
2023/08/08 20:43:58;;;;;;;;;;;;;;;15.16;73.86816;101302.1;;;;-69
2023/08/08 20:48:58;;;;;;;;;;;;;;;15.11;73.85742;101287.1;;;;-70
2023/08/08 20:53:58;;;;;;;;;;;;;;;15.04;73.73535;101287;;;;-69
2023/08/08 20:58:58;;;;;;;;;;;;;;;14.97;73.49902;101280.1;;;;-69
2023/08/08 21:03:58;;;;;;;;;;;;;;;14.92;73.79395;101291.1;;;;-70
2023/08/08 21:07:05;;;;;;;0.2;0.1;;;;;;;;;;;;;-70
2023/08/08 21:08:59;;;;;;;;;;;;;;;14.87;73.71777;101290.3;;;;-69
2023/08/08 21:13:58;;;;;;;;;;;;;;;14.81;74.13379;101284.8;;;;-70
2023/08/08 21:18:58;;;;;;;;;;;;;;;14.76;74.14844;101282.8;;;;-70
2023/08/08 21:23:58;;;;;;;;;;;;;;;14.73;73.96289;101286.1;;;;-68
2023/08/08 21:28:58;;;;;;;;;;;;;;;14.7;73.80078;101287.6;;;;-71
2023/08/08 21:33:58;;;;;;;;;;;;;;;14.63;73.86816;101289.8;;;;-71
2023/08/08 21:37:05;;;;;;;0.2;0;;;;;;;;;;;;;-70
2023/08/08 21:38:58;;;;;;;;;;;;;;;14.58;74.05078;101294.3;;;;-70
2023/08/08 21:43:59;;;;;;;;;;;;;;;14.54;74.13281;101296;;;;-70
2023/08/08 21:49:00;;;;;;;;;;;;;;;14.44;73.9707;101298.9;;;;-69
2023/08/08 21:53:58;;;;;;;;;;;;;;;14.4;74.08594;101302.3;;;;-70
2023/08/08 21:58:58;;;;;;;;;;;;;;;14.31;73.92676;101298.2;;;;-71
2023/08/08 22:03:58;;;;;;;;;;;;;;;14.23;73.75781;101305.6;;;;-70
2023/08/08 22:07:08;;;;;;;0.2;0.1;;;;;;;;;;;;;-69
2023/08/08 22:08:58;;;;;;;;;;;;;;;14.16;74.22656;101307.9;;;;-70
2023/08/08 22:13:58;;;;;;;;;;;;;;;14.12;74.10742;101314.3;;;;-71
2023/08/08 22:18:58;;;;;;;;;;;;;;;14.05;74.13965;101318.9;;;;-69
2023/08/08 22:23:58;;;;;;;;;;;;;;;13.97;74.50586;101317.2;;;;-70
2023/08/08 22:28:58;;;;;;;;;;;;;;;13.88;74.36914;101313.4;;;;-69
2023/08/08 22:34:00;;;;;;;;;;;;;;;13.87;74.44434;101317.5;;;;-70
2023/08/08 22:37:10;;;;;;;0.2;0.1;;;;;;;;;;;;;-70
2023/08/08 22:38:58;;;;;;;;;;;;;;;13.79;74.18555;101323.9;;;;-70
2023/08/08 22:43:58;;;;;;;;;;;;;;;13.73;74.36523;101310.7;;;;-70
2023/08/08 22:48:58;;;;;;;;;;;;;;;13.7;74.52832;101311.5;;;;-70
2023/08/08 22:53:58;;;;;;;;;;;;;;;13.67;74.43359;101296.3;;;;-70
2023/08/08 22:58:58;;;;;;;;;;;;;;;13.63;74.33887;101292.2;;;;-70
2023/08/08 23:03:58;;;;;;;;;;;;;;;13.67;74.79102;101291.4;;;;-69
2023/08/08 23:07:12;;;;;;;0.2;0;;;;;;;;;;;;;-70
2023/08/08 23:08:58;;;;;;;;;;;;;;;13.66;74.68945;101299.8;;;;-70
2023/08/08 23:13:58;;;;;;;;;;;;;;;13.65;74.53027;101303.6;;;;-69
2023/08/08 23:18:58;;;;;;;;;;;;;;;13.63;75.19629;101298.1;;;;-70
2023/08/08 23:24:01;;;;;;;;;;;;;;;13.62;74.22363;101300.1;;;;-69
2023/08/08 23:28:58;;;;;;;;;;;;;;;13.56;74.4248;101304.8;;;;-70
2023/08/08 23:33:58;;;;;;;;;;;;;;;13.52;74.67578;101300.6;;;;-71
2023/08/08 23:37:15;;;;;;;0.2;0.1;;;;;;;;;;;;;-70
2023/08/08 23:38:59;;;;;;;;;;;;;;;13.46;74.59961;101305.3;;;;-70
2023/08/08 23:43:58;;;;;;;;;;;;;;;13.44;74.3623;101308.5;;;;-70
2023/08/08 23:48:58;;;;;;;;;;;;;;;13.39;74.76563;101314.3;;;;-70
2023/08/08 23:53:58;;;;;;;;;;;;;;;13.34;74.73535;101312;;;;-70
2023/08/08 23:58:58;;;;;;;;;;;;;;;13.31;74.53809;101314.2;;;;-70
